createdAt,value
2019-03-18T00:01:49.266Z,1.67
2019-03-18T00:06:51.502Z,1.77
2019-03-18T00:11:53.597Z,1.60
2019-03-18T00:16:55.982Z,2.02
2019-03-18T00:21:58.033Z,3.15
2019-03-18T00:27:00.259Z,4.10
2019-03-18T00:32:02.270Z,1.90
2019-03-18T00:37:04.423Z,2.02
2019-03-18T00:42:06.904Z,2.33
2019-03-18T00:47:09.159Z,2.37
2019-03-18T00:52:11.245Z,2.92
2019-03-18T00:57:13.302Z,5.50
2019-03-18T01:02:15.442Z,2.87
2019-03-18T01:07:17.638Z,5.25
2019-03-18T01:12:19.772Z,5.85
2019-03-18T01:17:21.850Z,4.65
2019-03-18T01:22:24.195Z,6.15
2019-03-18T01:27:26.640Z,5.30
2019-03-18T01:32:28.730Z,8.98
2019-03-18T01:37:30.810Z,8.48
2019-03-18T01:42:33.380Z,6.87
2019-03-18T01:47:35.434Z,7.60
2019-03-18T01:52:37.513Z,8.33
2019-03-18T01:57:39.553Z,7.90
2019-03-18T02:02:41.673Z,5.65
2019-03-18T02:07:43.690Z,5.83
2019-03-18T02:12:45.722Z,8.55
2019-03-18T02:17:47.809Z,6.35
2019-03-18T02:22:52.178Z,6.87
2019-03-18T02:27:54.267Z,5.33
2019-03-18T02:32:56.429Z,5.33
2019-03-18T02:37:58.573Z,5.15
2019-03-18T02:43:00.642Z,11.12
2019-03-18T02:48:04.223Z,6.67
2019-03-18T02:53:06.521Z,8.58
2019-03-18T02:58:09.493Z,6.55
2019-03-18T03:03:11.552Z,9.18
2019-03-18T03:08:13.667Z,6.53
2019-03-18T03:13:15.783Z,8.23
2019-03-18T03:18:19.923Z,6.58
2019-03-18T03:23:21.989Z,9.03
2019-03-18T03:28:24.076Z,8.80
2019-03-18T03:33:26.158Z,12.88
2019-03-18T03:38:28.351Z,7.33
2019-03-18T03:43:30.559Z,10.05
2019-03-18T03:48:32.919Z,13.58
2019-03-18T03:53:34.924Z,10.13
2019-03-18T03:58:37.188Z,9.48
2019-03-18T04:03:39.294Z,11.15
2019-03-18T04:08:43.823Z,12.75
2019-03-18T04:13:45.892Z,14.63
2019-03-18T04:18:48.160Z,11.83
2019-03-18T04:23:50.210Z,12.45
2019-03-18T04:28:52.387Z,13.58
2019-03-18T04:33:54.383Z,13.98
2019-03-18T04:38:56.514Z,11.05
2019-03-18T04:43:58.634Z,16.65
2019-03-18T04:49:01.126Z,14.45
2019-03-18T04:54:03.242Z,12.28
2019-03-18T04:59:05.870Z,11.50
2019-03-18T05:04:07.967Z,10.20
2019-03-18T05:09:10.323Z,9.63
2019-03-18T05:14:12.391Z,9.53
2019-03-18T05:19:14.482Z,11.43
2019-03-18T05:24:16.576Z,11.18
2019-03-18T05:29:18.964Z,11.10
2019-03-18T05:34:21.071Z,10.15
2019-03-18T05:39:23.149Z,9.98
2019-03-18T05:44:25.408Z,11.12
2019-03-18T05:49:27.971Z,9.88
2019-03-18T05:54:30.080Z,9.90
2019-03-18T05:59:32.298Z,11.12
2019-03-18T06:04:35.261Z,10.23
2019-03-18T06:09:37.572Z,11.57
2019-03-18T06:14:39.693Z,10.68
2019-03-18T06:19:41.826Z,12.28
2019-03-18T06:24:43.964Z,12.47
2019-03-18T06:29:46.773Z,14.93
2019-03-18T06:34:48.878Z,13.60
2019-03-18T06:39:50.998Z,13.20
2019-03-18T06:44:53.054Z,11.90
2019-03-18T06:49:55.122Z,12.60
2019-03-18T06:54:57.111Z,14.43
2019-03-18T06:59:59.332Z,11.85
2019-03-18T07:05:01.509Z,11.80
2019-03-18T07:10:04.005Z,13.08
2019-03-18T07:15:06.242Z,11.38
2019-03-18T07:20:08.974Z,10.80
2019-03-18T07:25:11.831Z,9.90
2019-03-18T07:30:14.512Z,10.05
2019-03-18T07:35:16.666Z,8.95
2019-03-18T07:40:18.867Z,11.38
2019-03-18T07:45:21.269Z,9.60
2019-03-18T07:50:23.418Z,7.62
2019-03-18T07:55:25.510Z,7.30
2019-03-18T08:00:28.046Z,6.35
2019-03-18T08:05:30.159Z,6.45
2019-03-18T08:10:32.174Z,8.60
2019-03-18T08:15:34.215Z,5.28
2019-03-18T08:20:36.297Z,5.37
2019-03-18T08:25:38.325Z,6.92
2019-03-18T08:30:40.403Z,7.22
2019-03-18T08:35:42.425Z,5.22
2019-03-18T08:40:44.802Z,6.90
2019-03-18T08:45:46.956Z,10.70
2019-03-18T08:50:49.031Z,5.30
2019-03-18T08:55:51.050Z,6.05
2019-03-18T09:00:53.238Z,6.42
2019-03-18T09:05:55.326Z,6.75
2019-03-18T09:10:57.367Z,7.15
2019-03-18T09:15:59.811Z,6.70
2019-03-18T09:21:02.280Z,7.28
2019-03-18T09:26:06.784Z,8.58
2019-03-18T09:31:08.833Z,5.53
2019-03-18T09:36:11.089Z,5.87
2019-03-18T09:41:13.315Z,5.15
2019-03-18T09:46:15.414Z,12.50
2019-03-18T09:51:17.487Z,6.78
2019-03-18T09:56:19.514Z,4.70
2019-03-18T10:01:21.585Z,3.20
2019-03-18T10:06:23.809Z,3.75
2019-03-18T10:11:25.878Z,5.92
2019-03-18T10:16:28.312Z,3.58
2019-03-18T10:21:30.495Z,3.35
2019-03-18T10:26:32.585Z,4.85
2019-03-18T10:31:34.635Z,6.35
2019-03-18T10:36:36.671Z,4.58
2019-03-18T10:41:39.004Z,3.50
2019-03-18T10:46:41.115Z,2.92
2019-03-18T10:51:43.572Z,5.08
2019-03-18T10:56:47.398Z,3.77
2019-03-18T11:01:49.474Z,3.40
2019-03-18T11:06:51.570Z,5.05
2019-03-18T11:11:53.649Z,3.85
2019-03-18T11:16:55.777Z,5.33
2019-03-18T11:21:57.919Z,7.62
2019-03-18T11:26:59.958Z,4.65
2019-03-18T11:32:02.342Z,4.75
2019-03-18T11:37:04.301Z,5.78
2019-03-18T11:42:06.376Z,3.42
2019-03-18T11:47:08.499Z,4.60
2019-03-18T11:52:10.744Z,3.37
2019-03-18T11:57:12.902Z,2.20
2019-03-18T12:02:26.954Z,3.35
2019-03-18T12:07:19.086Z,2.17
2019-03-18T12:12:21.251Z,6.50
2019-03-18T12:17:23.352Z,2.50
2019-03-18T12:22:25.538Z,3.27
2019-03-18T12:27:27.697Z,2.95
2019-03-18T12:32:29.771Z,4.28
2019-03-18T12:37:32.167Z,6.30
2019-03-18T12:42:34.701Z,4.40
2019-03-18T12:47:38.009Z,6.25
2019-03-18T12:52:40.064Z,2.95
2019-03-18T12:57:42.565Z,5.50
2019-03-18T13:02:44.991Z,3.02
2019-03-18T13:07:47.379Z,2.90
2019-03-18T13:12:50.204Z,5.70
2019-03-18T13:17:52.262Z,3.27
2019-03-18T13:22:54.600Z,4.95
2019-03-18T13:27:56.779Z,3.35
2019-03-18T13:32:58.917Z,4.28
2019-03-18T13:38:00.998Z,4.72
2019-03-18T13:43:03.090Z,3.47
2019-03-18T13:48:05.236Z,2.87
2019-03-18T13:53:08.409Z,5.78
2019-03-18T13:58:10.578Z,4.30
2019-03-18T14:03:12.818Z,3.80
2019-03-18T14:08:14.830Z,9.30
2019-03-18T14:13:16.898Z,6.87
2019-03-18T14:18:18.965Z,5.00
2019-03-18T14:23:21.063Z,4.20
2019-03-18T14:28:23.133Z,3.37
2019-03-18T14:33:25.662Z,2.72
2019-03-18T14:38:27.814Z,2.33
2019-03-18T14:43:29.866Z,3.80
2019-03-18T14:48:31.934Z,3.90
2019-03-18T14:53:36.443Z,3.33
2019-03-18T14:58:39.109Z,4.97
2019-03-18T15:03:41.394Z,3.80
2019-03-18T15:08:43.557Z,4.75
2019-03-18T15:13:45.599Z,2.67
2019-03-18T15:18:47.694Z,3.33
2019-03-18T15:23:49.750Z,4.50
2019-03-18T15:28:51.894Z,4.33
2019-03-18T15:33:54.167Z,3.02
2019-03-18T15:38:56.291Z,3.30
2019-03-18T15:43:58.348Z,2.30
2019-03-18T15:49:00.549Z,4.17
2019-03-18T15:54:02.599Z,1.90
2019-03-18T15:59:05.122Z,3.22
2019-03-18T16:04:07.166Z,4.03
2019-03-18T16:09:09.373Z,2.87
2019-03-18T16:14:11.413Z,5.40
2019-03-18T16:19:13.859Z,2.58
2019-03-18T16:24:17.190Z,2.85
2019-03-18T16:29:19.494Z,5.08
2019-03-18T16:34:21.614Z,4.72
2019-03-18T16:39:24.276Z,3.83
2019-03-18T16:44:26.354Z,4.60
2019-03-18T16:49:28.445Z,2.75
2019-03-18T16:54:30.480Z,3.08
2019-03-18T16:59:32.879Z,2.83
2019-03-18T17:04:34.971Z,3.77
2019-03-18T17:09:37.026Z,3.02
2019-03-18T17:14:39.463Z,4.78
2019-03-18T17:19:41.566Z,2.62
2019-03-18T17:24:43.615Z,4.00
2019-03-18T17:29:45.730Z,3.80
2019-03-18T17:34:48.017Z,7.60
2019-03-18T17:39:50.162Z,5.58
2019-03-18T17:44:52.189Z,5.42
2019-03-18T17:49:54.188Z,6.75
2019-03-18T17:54:56.252Z,4.58
2019-03-18T17:59:58.395Z,6.10
2019-03-18T18:05:03.113Z,6.95
2019-03-18T18:10:05.024Z,6.30
2019-03-18T18:15:07.457Z,6.17
2019-03-18T18:20:09.630Z,6.17
2019-03-18T18:25:11.900Z,3.55
2019-03-18T18:30:14.222Z,5.92
2019-03-18T18:35:16.329Z,9.38
2019-03-18T18:40:18.440Z,5.87
2019-03-18T18:45:21.366Z,8.15
2019-03-18T18:50:23.661Z,7.90
2019-03-18T18:55:25.712Z,7.12
2019-03-18T19:00:27.894Z,6.70
2019-03-18T19:05:30.056Z,7.40
2019-03-18T19:10:32.147Z,5.12
2019-03-18T19:15:34.349Z,9.48
2019-03-18T19:20:36.500Z,9.20
2019-03-18T19:25:41.438Z,6.12
2019-03-18T19:30:43.623Z,5.97
2019-03-18T19:35:45.819Z,9.65
2019-03-18T19:40:47.850Z,6.33
2019-03-18T19:45:49.918Z,5.33
2019-03-18T19:50:52.967Z,6.78
2019-03-18T19:55:55.046Z,5.53
2019-03-18T20:00:57.354Z,6.62
2019-03-18T20:06:00.398Z,11.15
2019-03-18T20:11:04.518Z,11.68
2019-03-18T20:16:06.568Z,8.85
2019-03-18T20:21:08.837Z,10.60
2019-03-18T20:26:11.234Z,9.83
2019-03-18T20:31:25.128Z,4.12
2019-03-18T20:36:17.268Z,7.78
2019-03-18T20:41:19.348Z,5.78
2019-03-18T20:46:21.432Z,7.65
2019-03-18T20:51:23.512Z,6.10
2019-03-18T20:56:28.035Z,9.23
2019-03-18T21:01:30.129Z,8.10
2019-03-18T21:06:34.655Z,8.15
2019-03-18T21:11:37.400Z,7.90
2019-03-18T21:16:39.754Z,9.33
2019-03-18T21:21:42.578Z,6.22
2019-03-18T21:26:44.950Z,8.78
2019-03-18T21:31:47.570Z,9.53
2019-03-18T21:36:49.994Z,7.70
2019-03-18T21:41:52.253Z,9.60
2019-03-18T21:46:57.300Z,5.25
2019-03-18T21:51:59.306Z,4.58
2019-03-18T21:57:01.375Z,5.30
2019-03-18T22:02:03.533Z,9.25
2019-03-18T22:07:05.758Z,11.83
2019-03-18T22:12:07.816Z,7.60
2019-03-18T22:17:12.238Z,8.45
2019-03-18T22:22:14.335Z,7.87
2019-03-18T22:27:16.689Z,8.63
2019-03-18T22:32:18.810Z,8.35
2019-03-18T22:37:20.925Z,4.28
2019-03-18T22:42:23.094Z,8.73
2019-03-18T22:47:25.807Z,6.00
2019-03-18T22:52:27.862Z,9.18
2019-03-18T22:57:30.188Z,7.78
2019-03-18T23:02:32.270Z,7.58
2019-03-18T23:07:34.706Z,8.00
2019-03-18T23:12:36.740Z,9.80
2019-03-18T23:17:38.999Z,7.12
2019-03-18T23:22:41.039Z,9.15
2019-03-18T23:27:43.079Z,10.25
2019-03-18T23:32:45.153Z,7.42
2019-03-18T23:37:47.229Z,11.08
2019-03-18T23:42:49.269Z,10.95
2019-03-18T23:47:53.608Z,7.97
2019-03-18T23:52:55.745Z,7.80
2019-03-18T23:57:57.841Z,9.63
